Kirishima Maru No.5 — JD2506 — position and weather

sailwx.info

Track history (hours):
 
Tides and Currents Weather Stations Pressure Air Temp Water Temp Dewpoint Dewpoint Depression Visibility Wind Speed Wind Dir Waves Ship Positions

Kirishima Maru No.5

Last reported at 2015-Jul-29 19:33 UTC. Time now 2015-Aug-02 18:23 UTC.
Position N 36°54' E 141°05'.

Length 105 m; draft 5.4 m.

Type: Tanker. MMSI: 431000338.

Date/timePositionNaut miles runAvg speedWind from/ knotsBaromVisibWave heightAir tempDewpointWater temp
2015-Jul-29 19:33N 36°54' E 141°05'1514.8
2015-Jul-29 18:33N 36°40' E 141°03'1514.8
2015-Jul-29 17:33N 36°25' E 141°02'1515.0
2015-Jul-29 16:33N 36°10' E 141°00'1414.5
2015-Jul-29 15:33N 35°55' E 140°59'1414.4
2015-Jul-29 14:33N 35°41' E 140°58'1514.6
2015-Jul-29 13:31N 35°29' E 140°48'1515.3
2015-Jul-29 12:33N 35°17' E 140°36'1615.2
2015-Jul-29 11:29N 35°04' E 140°24'1415.6
2015-Jul-29 10:33N 34°56' E 140°09'1915.1
2015-Jul-29 09:17N 34°47' E 139°49'24413.0
2015-Jul-28 14:33N 34°03' E 134°58'1815.3
2015-Jul-28 13:21N 34°21' E 134°59'1214.7
2015-Jul-28 12:33N 34°33' E 135°02'  
Track history (hours):
 
Tides and Currents Weather Stations Pressure Air Temp Water Temp Dewpoint Dewpoint Depression Visibility Wind Speed Wind Dir Waves Ship Positions

Kirishima Maru No.5

Last reported at 2015-Jul-29 19:33 UTC. Time now 2015-Aug-02 18:23 UTC.
Position N 36°54' E 141°05'.

Length 105 m; draft 5.4 m.

Type: Tanker. MMSI: 431000338.

Date/timePositionNaut miles runAvg speedWind from/ knotsBaromVisibWave heightAir tempDewpointWater temp
2015-Jul-29 19:33N 36°54' E 141°05'1514.8
2015-Jul-29 18:33N 36°40' E 141°03'1514.8
2015-Jul-29 17:33N 36°25' E 141°02'1515.0
2015-Jul-29 16:33N 36°10' E 141°00'1414.5
2015-Jul-29 15:33N 35°55' E 140°59'1414.4
2015-Jul-29 14:33N 35°41' E 140°58'1514.6
2015-Jul-29 13:31N 35°29' E 140°48'1515.3
2015-Jul-29 12:33N 35°17' E 140°36'1615.2
2015-Jul-29 11:29N 35°04' E 140°24'1415.6
2015-Jul-29 10:33N 34°56' E 140°09'1915.1
2015-Jul-29 09:17N 34°47' E 139°49'24413.0
2015-Jul-28 14:33N 34°03' E 134°58'1815.3
2015-Jul-28 13:21N 34°21' E 134°59'1214.7
2015-Jul-28 12:33N 34°33' E 135°02'  

Dump ship's entire track history